sensor_id;sensor_type;location;lat;lon;timestamp;P1;durP1;ratioP1;P2;durP2;ratioP2
48853;SDS011;34673;52.808;17.856;2022-10-17T00:00:49;20.92;;;13.88;;
48853;SDS011;34673;52.808;17.856;2022-10-17T00:03:17;16.58;;;12.13;;
48853;SDS011;34673;52.808;17.856;2022-10-17T00:05:44;21.60;;;14.05;;
48853;SDS011;34673;52.808;17.856;2022-10-17T00:08:13;19.08;;;13.15;;
48853;SDS011;34673;52.808;17.856;2022-10-17T00:10:42;21.77;;;14.00;;
48853;SDS011;34673;52.808;17.856;2022-10-17T00:13:10;16.27;;;11.63;;
48853;SDS011;34673;52.808;17.856;2022-10-17T00:15:40;18.73;;;12.73;;
48853;SDS011;34673;52.808;17.856;2022-10-17T00:18:10;21.48;;;14.45;;
48853;SDS011;34673;52.808;17.856;2022-10-17T00:20:37;26.70;;;16.98;;
48853;SDS011;34673;52.808;17.856;2022-10-17T00:23:05;22.42;;;15.35;;
48853;SDS011;34673;52.808;17.856;2022-10-17T00:25:32;23.42;;;15.07;;
48853;SDS011;34673;52.808;17.856;2022-10-17T00:27:59;20.75;;;13.45;;
48853;SDS011;34673;52.808;17.856;2022-10-17T00:30:26;20.83;;;13.55;;
48853;SDS011;34673;52.808;17.856;2022-10-17T00:32:53;16.73;;;11.98;;
48853;SDS011;34673;52.808;17.856;2022-10-17T00:35:21;19.33;;;14.13;;
48853;SDS011;34673;52.808;17.856;2022-10-17T00:37:48;19.58;;;14.50;;
48853;SDS011;34673;52.808;17.856;2022-10-17T00:40:15;18.20;;;13.57;;
48853;SDS011;34673;52.808;17.856;2022-10-17T00:42:45;17.43;;;13.13;;
48853;SDS011;34673;52.808;17.856;2022-10-17T00:48:14;22.17;;;14.88;;
48853;SDS011;34673;52.808;17.856;2022-10-17T00:50:49;22.02;;;14.77;;
48853;SDS011;34673;52.808;17.856;2022-10-17T00:53:16;23.55;;;15.20;;
48853;SDS011;34673;52.808;17.856;2022-10-17T00:55:47;18.80;;;13.98;;
48853;SDS011;34673;52.808;17.856;2022-10-17T00:58:16;21.27;;;13.98;;
48853;SDS011;34673;52.808;17.856;2022-10-17T01:00:45;22.92;;;15.73;;
48853;SDS011;34673;52.808;17.856;2022-10-17T01:03:14;19.53;;;14.30;;
48853;SDS011;34673;52.808;17.856;2022-10-17T01:05:42;24.50;;;15.35;;
48853;SDS011;34673;52.808;17.856;2022-10-17T01:08:09;20.15;;;13.65;;
48853;SDS011;34673;52.808;17.856;2022-10-17T01:14:00;21.55;;;14.50;;
48853;SDS011;34673;52.808;17.856;2022-10-17T01:22:00;22.80;;;15.95;;
48853;SDS011;34673;52.808;17.856;2022-10-17T01:36:30;20.58;;;14.05;;
48853;SDS011;34673;52.808;17.856;2022-10-17T01:47:07;20.73;;;14.10;;
48853;SDS011;34673;52.808;17.856;2022-10-17T01:49:39;17.67;;;12.00;;
48853;SDS011;34673;52.808;17.856;2022-10-17T01:52:14;20.40;;;12.77;;
48853;SDS011;34673;52.808;17.856;2022-10-17T01:54:51;22.52;;;15.90;;
48853;SDS011;34673;52.808;17.856;2022-10-17T02:00:04;24.80;;;15.45;;
48853;SDS011;34673;52.808;17.856;2022-10-17T02:02:38;20.70;;;15.25;;
48853;SDS011;34673;52.808;17.856;2022-10-17T02:05:08;28.23;;;18.35;;
48853;SDS011;34673;52.808;17.856;2022-10-17T02:07:36;25.98;;;18.27;;
48853;SDS011;34673;52.808;17.856;2022-10-17T02:10:03;25.38;;;18.58;;
48853;SDS011;34673;52.808;17.856;2022-10-17T02:12:49;29.15;;;17.58;;
48853;SDS011;34673;52.808;17.856;2022-10-17T02:18:09;29.40;;;18.07;;
48853;SDS011;34673;52.808;17.856;2022-10-17T02:23:27;21.20;;;15.60;;
48853;SDS011;34673;52.808;17.856;2022-10-17T02:26:06;18.40;;;14.27;;
48853;SDS011;34673;52.808;17.856;2022-10-17T02:28:47;20.83;;;13.80;;
48853;SDS011;34673;52.808;17.856;2022-10-17T02:31:32;24.13;;;15.38;;
48853;SDS011;34673;52.808;17.856;2022-10-17T02:34:15;23.25;;;15.63;;
48853;SDS011;34673;52.808;17.856;2022-10-17T02:36:47;23.08;;;15.32;;
48853;SDS011;34673;52.808;17.856;2022-10-17T02:39:20;25.40;;;15.32;;
48853;SDS011;34673;52.808;17.856;2022-10-17T02:41:49;19.98;;;15.10;;
48853;SDS011;34673;52.808;17.856;2022-10-17T02:44:18;19.15;;;13.95;;
48853;SDS011;34673;52.808;17.856;2022-10-17T02:46:50;18.92;;;13.73;;
48853;SDS011;34673;52.808;17.856;2022-10-17T02:49:27;18.95;;;14.57;;
48853;SDS011;34673;52.808;17.856;2022-10-17T02:52:08;22.45;;;15.52;;
48853;SDS011;34673;52.808;17.856;2022-10-17T02:54:41;19.73;;;14.50;;
48853;SDS011;34673;52.808;17.856;2022-10-17T02:57:24;20.52;;;14.38;;
48853;SDS011;34673;52.808;17.856;2022-10-17T02:59:57;20.75;;;14.65;;
48853;SDS011;34673;52.808;17.856;2022-10-17T03:02:27;23.48;;;16.25;;
48853;SDS011;34673;52.808;17.856;2022-10-17T03:04:55;24.33;;;15.35;;
48853;SDS011;34673;52.808;17.856;2022-10-17T03:07:22;20.23;;;14.18;;
48853;SDS011;34673;52.808;17.856;2022-10-17T03:09:49;21.38;;;13.88;;
48853;SDS011;34673;52.808;17.856;2022-10-17T03:12:16;23.20;;;15.00;;
48853;SDS011;34673;52.808;17.856;2022-10-17T03:14:44;27.25;;;17.08;;
48853;SDS011;34673;52.808;17.856;2022-10-17T03:17:11;26.45;;;17.27;;
48853;SDS011;34673;52.808;17.856;2022-10-17T03:19:39;22.27;;;14.88;;
48853;SDS011;34673;52.808;17.856;2022-10-17T03:22:07;21.92;;;15.07;;
48853;SDS011;34673;52.808;17.856;2022-10-17T03:24:35;23.75;;;16.27;;
48853;SDS011;34673;52.808;17.856;2022-10-17T03:27:02;22.38;;;15.02;;
48853;SDS011;34673;52.808;17.856;2022-10-17T03:29:30;24.27;;;15.55;;
48853;SDS011;34673;52.808;17.856;2022-10-17T03:31:57;21.98;;;14.65;;
48853;SDS011;34673;52.808;17.856;2022-10-17T03:34:24;20.02;;;14.40;;
48853;SDS011;34673;52.808;17.856;2022-10-17T03:36:52;21.02;;;14.02;;
48853;SDS011;34673;52.808;17.856;2022-10-17T03:39:20;21.58;;;14.63;;
48853;SDS011;34673;52.808;17.856;2022-10-17T03:41:47;21.65;;;14.38;;
48853;SDS011;34673;52.808;17.856;2022-10-17T03:44:15;18.42;;;13.10;;
48853;SDS011;34673;52.808;17.856;2022-10-17T03:46:42;20.10;;;13.80;;
48853;SDS011;34673;52.808;17.856;2022-10-17T03:49:10;18.90;;;12.98;;
48853;SDS011;34673;52.808;17.856;2022-10-17T03:51:38;21.25;;;14.25;;
48853;SDS011;34673;52.808;17.856;2022-10-17T03:54:09;15.52;;;11.98;;
48853;SDS011;34673;52.808;17.856;2022-10-17T03:56:38;18.30;;;12.52;;
48853;SDS011;34673;52.808;17.856;2022-10-17T03:59:13;24.95;;;16.00;;
48853;SDS011;34673;52.808;17.856;2022-10-17T04:01:48;20.67;;;15.20;;
48853;SDS011;34673;52.808;17.856;2022-10-17T04:04:15;23.65;;;15.90;;
48853;SDS011;34673;52.808;17.856;2022-10-17T04:06:43;22.48;;;15.82;;
48853;SDS011;34673;52.808;17.856;2022-10-17T04:09:10;21.45;;;13.93;;
48853;SDS011;34673;52.808;17.856;2022-10-17T04:11:48;28.40;;;16.88;;
48853;SDS011;34673;52.808;17.856;2022-10-17T04:14:16;31.02;;;19.05;;
48853;SDS011;34673;52.808;17.856;2022-10-17T04:16:43;27.88;;;16.88;;
48853;SDS011;34673;52.808;17.856;2022-10-17T04:19:14;22.52;;;15.95;;
48853;SDS011;34673;52.808;17.856;2022-10-17T04:21:44;25.65;;;16.60;;
48853;SDS011;34673;52.808;17.856;2022-10-17T04:24:13;27.65;;;17.50;;
48853;SDS011;34673;52.808;17.856;2022-10-17T04:26:41;24.88;;;16.83;;
48853;SDS011;34673;52.808;17.856;2022-10-17T04:29:08;25.15;;;16.60;;
48853;SDS011;34673;52.808;17.856;2022-10-17T04:31:37;24.75;;;16.60;;
48853;SDS011;34673;52.808;17.856;2022-10-17T04:34:23;27.13;;;18.33;;
48853;SDS011;34673;52.808;17.856;2022-10-17T04:36:50;26.10;;;17.92;;
48853;SDS011;34673;52.808;17.856;2022-10-17T04:39:18;24.52;;;16.35;;
48853;SDS011;34673;52.808;17.856;2022-10-17T04:41:46;25.98;;;16.10;;
48853;SDS011;34673;52.808;17.856;2022-10-17T04:44:14;19.15;;;13.23;;
48853;SDS011;34673;52.808;17.856;2022-10-17T04:46:47;22.55;;;14.77;;
48853;SDS011;34673;52.808;17.856;2022-10-17T04:49:14;19.60;;;12.93;;
48853;SDS011;34673;52.808;17.856;2022-10-17T04:51:44;23.50;;;14.88;;
48853;SDS011;34673;52.808;17.856;2022-10-17T04:54:17;22.88;;;14.88;;
48853;SDS011;34673;52.808;17.856;2022-10-17T04:56:50;21.10;;;14.70;;
48853;SDS011;34673;52.808;17.856;2022-10-17T04:59:17;27.38;;;17.38;;
48853;SDS011;34673;52.808;17.856;2022-10-17T05:01:48;24.58;;;13.85;;
48853;SDS011;34673;52.808;17.856;2022-10-17T05:04:16;19.27;;;12.90;;
48853;SDS011;34673;52.808;17.856;2022-10-17T05:06:49;27.00;;;15.23;;
48853;SDS011;34673;52.808;17.856;2022-10-17T05:09:34;21.80;;;14.02;;
48853;SDS011;34673;52.808;17.856;2022-10-17T05:12:02;23.38;;;16.50;;
48853;SDS011;34673;52.808;17.856;2022-10-17T05:14:36;26.98;;;16.40;;
48853;SDS011;34673;52.808;17.856;2022-10-17T05:17:03;22.15;;;13.70;;
48853;SDS011;34673;52.808;17.856;2022-10-17T05:19:31;24.85;;;15.68;;
48853;SDS011;34673;52.808;17.856;2022-10-17T05:21:58;22.08;;;14.43;;
48853;SDS011;34673;52.808;17.856;2022-10-17T05:24:25;24.20;;;14.02;;
48853;SDS011;34673;52.808;17.856;2022-10-17T05:26:52;25.30;;;17.27;;
48853;SDS011;34673;52.808;17.856;2022-10-17T05:29:20;32.13;;;20.67;;
48853;SDS011;34673;52.808;17.856;2022-10-17T05:31:54;36.20;;;23.17;;
48853;SDS011;34673;52.808;17.856;2022-10-17T05:34:22;39.80;;;25.27;;
48853;SDS011;34673;52.808;17.856;2022-10-17T05:36:50;42.33;;;25.63;;
48853;SDS011;34673;52.808;17.856;2022-10-17T05:39:20;35.60;;;22.60;;
48853;SDS011;34673;52.808;17.856;2022-10-17T05:41:50;31.65;;;20.90;;
48853;SDS011;34673;52.808;17.856;2022-10-17T05:44:18;25.13;;;16.17;;
48853;SDS011;34673;52.808;17.856;2022-10-17T05:46:51;40.10;;;23.98;;
48853;SDS011;34673;52.808;17.856;2022-10-17T05:49:19;47.40;;;27.15;;
48853;SDS011;34673;52.808;17.856;2022-10-17T05:52:05;46.80;;;26.42;;
48853;SDS011;34673;52.808;17.856;2022-10-17T05:54:43;43.13;;;27.08;;
48853;SDS011;34673;52.808;17.856;2022-10-17T05:57:11;48.95;;;27.83;;
48853;SDS011;34673;52.808;17.856;2022-10-17T05:59:39;57.15;;;30.95;;
48853;SDS011;34673;52.808;17.856;2022-10-17T06:02:11;47.60;;;29.08;;
48853;SDS011;34673;52.808;17.856;2022-10-17T06:04:39;53.47;;;31.63;;
48853;SDS011;34673;52.808;17.856;2022-10-17T06:07:12;49.45;;;29.45;;
48853;SDS011;34673;52.808;17.856;2022-10-17T06:09:42;46.97;;;29.90;;
48853;SDS011;34673;52.808;17.856;2022-10-17T06:12:15;44.50;;;28.15;;
48853;SDS011;34673;52.808;17.856;2022-10-17T06:14:43;45.72;;;28.20;;
48853;SDS011;34673;52.808;17.856;2022-10-17T06:17:12;45.72;;;29.02;;
48853;SDS011;34673;52.808;17.856;2022-10-17T06:19:42;39.83;;;27.70;;
48853;SDS011;34673;52.808;17.856;2022-10-17T06:22:14;42.10;;;28.42;;
48853;SDS011;34673;52.808;17.856;2022-10-17T06:24:41;45.70;;;30.55;;
48853;SDS011;34673;52.808;17.856;2022-10-17T06:27:10;47.30;;;29.58;;
48853;SDS011;34673;52.808;17.856;2022-10-17T06:29:39;50.28;;;30.90;;
48853;SDS011;34673;52.808;17.856;2022-10-17T06:32:07;47.88;;;30.25;;
48853;SDS011;34673;52.808;17.856;2022-10-17T06:34:40;44.28;;;28.23;;
48853;SDS011;34673;52.808;17.856;2022-10-17T06:37:08;39.83;;;29.05;;
48853;SDS011;34673;52.808;17.856;2022-10-17T06:39:37;42.45;;;28.77;;
48853;SDS011;34673;52.808;17.856;2022-10-17T06:42:18;47.55;;;30.48;;
48853;SDS011;34673;52.808;17.856;2022-10-17T06:45:02;46.72;;;29.52;;
48853;SDS011;34673;52.808;17.856;2022-10-17T06:47:52;48.50;;;31.95;;
48853;SDS011;34673;52.808;17.856;2022-10-17T06:50:41;39.80;;;27.58;;
48853;SDS011;34673;52.808;17.856;2022-10-17T06:53:15;45.75;;;32.10;;
48853;SDS011;34673;52.808;17.856;2022-10-17T06:56:11;42.17;;;28.70;;
48853;SDS011;34673;52.808;17.856;2022-10-17T07:01:33;42.25;;;29.63;;
48853;SDS011;34673;52.808;17.856;2022-10-17T07:04:02;43.33;;;29.15;;
48853;SDS011;34673;52.808;17.856;2022-10-17T07:06:30;43.25;;;28.90;;
48853;SDS011;34673;52.808;17.856;2022-10-17T07:09:03;45.88;;;31.10;;
48853;SDS011;34673;52.808;17.856;2022-10-17T07:11:35;41.78;;;29.27;;
48853;SDS011;34673;52.808;17.856;2022-10-17T07:14:02;48.95;;;31.73;;
48853;SDS011;34673;52.808;17.856;2022-10-17T07:16:29;43.67;;;29.50;;
48853;SDS011;34673;52.808;17.856;2022-10-17T07:19:06;40.55;;;28.45;;
48853;SDS011;34673;52.808;17.856;2022-10-17T07:21:36;41.90;;;29.88;;
48853;SDS011;34673;52.808;17.856;2022-10-17T07:24:06;39.05;;;29.55;;
48853;SDS011;34673;52.808;17.856;2022-10-17T07:26:34;41.38;;;30.00;;
48853;SDS011;34673;52.808;17.856;2022-10-17T07:29:02;43.35;;;29.45;;
48853;SDS011;34673;52.808;17.856;2022-10-17T07:31:36;41.55;;;29.55;;
48853;SDS011;34673;52.808;17.856;2022-10-17T07:34:03;39.38;;;29.42;;
48853;SDS011;34673;52.808;17.856;2022-10-17T07:36:31;44.15;;;30.27;;
48853;SDS011;34673;52.808;17.856;2022-10-17T07:39:01;42.55;;;30.05;;
48853;SDS011;34673;52.808;17.856;2022-10-17T07:41:29;44.63;;;29.98;;
48853;SDS011;34673;52.808;17.856;2022-10-17T07:43:57;40.95;;;29.70;;
48853;SDS011;34673;52.808;17.856;2022-10-17T07:46:30;39.30;;;28.40;;
48853;SDS011;34673;52.808;17.856;2022-10-17T07:48:58;40.30;;;28.52;;
48853;SDS011;34673;52.808;17.856;2022-10-17T07:51:25;37.40;;;25.40;;
48853;SDS011;34673;52.808;17.856;2022-10-17T07:53:53;40.10;;;27.60;;
48853;SDS011;34673;52.808;17.856;2022-10-17T07:56:20;38.70;;;27.73;;
48853;SDS011;34673;52.808;17.856;2022-10-17T07:58:50;40.72;;;27.98;;
48853;SDS011;34673;52.808;17.856;2022-10-17T08:01:18;37.72;;;27.17;;
48853;SDS011;34673;52.808;17.856;2022-10-17T08:03:46;37.38;;;24.48;;
48853;SDS011;34673;52.808;17.856;2022-10-17T08:06:16;39.55;;;28.45;;
48853;SDS011;34673;52.808;17.856;2022-10-17T08:08:44;40.50;;;27.10;;
48853;SDS011;34673;52.808;17.856;2022-10-17T08:11:12;36.90;;;26.65;;
48853;SDS011;34673;52.808;17.856;2022-10-17T08:13:40;40.90;;;27.75;;
48853;SDS011;34673;52.808;17.856;2022-10-17T08:16:09;41.00;;;27.95;;
48853;SDS011;34673;52.808;17.856;2022-10-17T08:18:38;41.80;;;28.08;;
48853;SDS011;34673;52.808;17.856;2022-10-17T08:21:07;36.92;;;25.85;;
48853;SDS011;34673;52.808;17.856;2022-10-17T08:23:35;39.45;;;28.13;;
48853;SDS011;34673;52.808;17.856;2022-10-17T08:26:04;36.80;;;25.73;;
48853;SDS011;34673;52.808;17.856;2022-10-17T08:28:37;37.45;;;26.90;;
48853;SDS011;34673;52.808;17.856;2022-10-17T08:31:07;36.28;;;27.45;;
48853;SDS011;34673;52.808;17.856;2022-10-17T08:33:39;39.97;;;27.58;;
48853;SDS011;34673;52.808;17.856;2022-10-17T08:36:07;42.03;;;26.80;;
48853;SDS011;34673;52.808;17.856;2022-10-17T08:38:36;37.90;;;27.60;;
48853;SDS011;34673;52.808;17.856;2022-10-17T08:43:57;38.95;;;27.15;;
48853;SDS011;34673;52.808;17.856;2022-10-17T08:46:31;41.03;;;28.88;;
48853;SDS011;34673;52.808;17.856;2022-10-17T08:49:02;39.83;;;29.27;;
48853;SDS011;34673;52.808;17.856;2022-10-17T08:51:39;39.35;;;27.98;;
48853;SDS011;34673;52.808;17.856;2022-10-17T08:54:21;39.50;;;27.65;;
48853;SDS011;34673;52.808;17.856;2022-10-17T08:57:15;38.42;;;26.20;;
48853;SDS011;34673;52.808;17.856;2022-10-17T08:59:44;35.88;;;26.75;;
48853;SDS011;34673;52.808;17.856;2022-10-17T09:08:16;37.95;;;27.38;;
48853;SDS011;34673;52.808;17.856;2022-10-17T09:10:51;38.63;;;27.88;;
48853;SDS011;34673;52.808;17.856;2022-10-17T09:16:35;42.00;;;26.33;;
48853;SDS011;34673;52.808;17.856;2022-10-17T09:19:33;36.88;;;27.75;;
48853;SDS011;34673;52.808;17.856;2022-10-17T09:27:37;38.53;;;25.50;;
48853;SDS011;34673;52.808;17.856;2022-10-17T09:33:12;34.85;;;26.05;;
48853;SDS011;34673;52.808;17.856;2022-10-17T09:36:05;35.22;;;25.50;;
48853;SDS011;34673;52.808;17.856;2022-10-17T09:38:56;35.35;;;25.33;;
48853;SDS011;34673;52.808;17.856;2022-10-17T09:49:31;31.40;;;23.27;;
48853;SDS011;34673;52.808;17.856;2022-10-17T09:52:01;31.53;;;23.60;;
48853;SDS011;34673;52.808;17.856;2022-10-17T09:54:52;36.92;;;25.67;;
48853;SDS011;34673;52.808;17.856;2022-10-17T09:57:20;28.77;;;22.42;;
48853;SDS011;34673;52.808;17.856;2022-10-17T10:02:22;35.05;;;25.13;;
48853;SDS011;34673;52.808;17.856;2022-10-17T10:04:52;34.50;;;24.90;;
48853;SDS011;34673;52.808;17.856;2022-10-17T10:07:36;33.72;;;25.48;;
48853;SDS011;34673;52.808;17.856;2022-10-17T10:10:05;32.70;;;24.13;;
48853;SDS011;34673;52.808;17.856;2022-10-17T10:13:00;33.13;;;24.48;;
48853;SDS011;34673;52.808;17.856;2022-10-17T10:15:35;31.98;;;23.55;;
48853;SDS011;34673;52.808;17.856;2022-10-17T10:18:25;31.15;;;22.75;;
48853;SDS011;34673;52.808;17.856;2022-10-17T10:21:03;32.85;;;23.27;;
48853;SDS011;34673;52.808;17.856;2022-10-17T10:26:26;30.87;;;22.77;;
48853;SDS011;34673;52.808;17.856;2022-10-17T10:29:02;32.28;;;22.77;;
48853;SDS011;34673;52.808;17.856;2022-10-17T10:31:37;34.50;;;21.23;;
48853;SDS011;34673;52.808;17.856;2022-10-17T10:34:16;30.05;;;21.48;;
48853;SDS011;34673;52.808;17.856;2022-10-17T10:41:58;28.83;;;20.75;;
48853;SDS011;34673;52.808;17.856;2022-10-17T10:44:28;29.55;;;21.40;;
48853;SDS011;34673;52.808;17.856;2022-10-17T10:47:14;33.20;;;22.65;;
48853;SDS011;34673;52.808;17.856;2022-10-17T10:49:50;29.65;;;21.15;;
48853;SDS011;34673;52.808;17.856;2022-10-17T10:52:36;32.42;;;20.42;;
48853;SDS011;34673;52.808;17.856;2022-10-17T10:55:17;29.02;;;20.90;;
48853;SDS011;34673;52.808;17.856;2022-10-17T10:57:54;27.75;;;20.40;;
48853;SDS011;34673;52.808;17.856;2022-10-17T11:00:26;28.52;;;20.38;;
48853;SDS011;34673;52.808;17.856;2022-10-17T11:03:01;29.27;;;20.35;;
48853;SDS011;34673;52.808;17.856;2022-10-17T11:05:47;28.58;;;20.08;;
48853;SDS011;34673;52.808;17.856;2022-10-17T11:08:22;26.52;;;20.17;;
48853;SDS011;34673;52.808;17.856;2022-10-17T11:11:06;25.80;;;17.92;;
48853;SDS011;34673;52.808;17.856;2022-10-17T11:14:01;25.75;;;18.60;;
48853;SDS011;34673;52.808;17.856;2022-10-17T11:16:36;23.35;;;17.85;;
48853;SDS011;34673;52.808;17.856;2022-10-17T11:19:12;26.98;;;19.27;;
48853;SDS011;34673;52.808;17.856;2022-10-17T11:22:01;25.33;;;18.42;;
48853;SDS011;34673;52.808;17.856;2022-10-17T11:24:39;24.73;;;17.45;;
48853;SDS011;34673;52.808;17.856;2022-10-17T11:27:13;23.85;;;16.58;;
48853;SDS011;34673;52.808;17.856;2022-10-17T11:29:42;24.00;;;16.70;;
48853;SDS011;34673;52.808;17.856;2022-10-17T11:32:12;22.85;;;16.80;;
48853;SDS011;34673;52.808;17.856;2022-10-17T11:34:46;22.80;;;16.48;;
48853;SDS011;34673;52.808;17.856;2022-10-17T11:37:18;23.85;;;16.75;;
48853;SDS011;34673;52.808;17.856;2022-10-17T11:39:53;22.60;;;16.15;;
48853;SDS011;34673;52.808;17.856;2022-10-17T11:42:52;22.17;;;15.48;;
48853;SDS011;34673;52.808;17.856;2022-10-17T11:45:25;20.92;;;15.25;;
48853;SDS011;34673;52.808;17.856;2022-10-17T11:48:00;22.13;;;15.35;;
48853;SDS011;34673;52.808;17.856;2022-10-17T11:50:33;22.02;;;14.73;;
48853;SDS011;34673;52.808;17.856;2022-10-17T11:53:31;20.83;;;14.35;;
48853;SDS011;34673;52.808;17.856;2022-10-17T11:56:09;20.40;;;15.55;;
48853;SDS011;34673;52.808;17.856;2022-10-17T12:01:31;22.05;;;14.75;;
48853;SDS011;34673;52.808;17.856;2022-10-17T12:10:19;20.13;;;14.55;;
48853;SDS011;34673;52.808;17.856;2022-10-17T12:12:55;20.45;;;14.30;;
48853;SDS011;34673;52.808;17.856;2022-10-17T12:18:10;25.13;;;15.35;;
48853;SDS011;34673;52.808;17.856;2022-10-17T12:20:42;23.08;;;14.63;;
48853;SDS011;34673;52.808;17.856;2022-10-17T12:23:26;24.25;;;16.25;;
48853;SDS011;34673;52.808;17.856;2022-10-17T12:25:55;24.10;;;15.63;;
48853;SDS011;34673;52.808;17.856;2022-10-17T12:28:31;24.73;;;15.23;;
48853;SDS011;34673;52.808;17.856;2022-10-17T12:31:15;21.42;;;15.70;;
48853;SDS011;34673;52.808;17.856;2022-10-17T12:33:59;25.23;;;16.00;;
48853;SDS011;34673;52.808;17.856;2022-10-17T12:52:13;22.60;;;15.00;;
48853;SDS011;34673;52.808;17.856;2022-10-17T13:00:21;19.67;;;13.38;;
48853;SDS011;34673;52.808;17.856;2022-10-17T13:03:05;18.50;;;13.77;;
48853;SDS011;34673;52.808;17.856;2022-10-17T13:05:37;18.80;;;13.95;;
48853;SDS011;34673;52.808;17.856;2022-10-17T13:08:07;23.10;;;13.93;;
48853;SDS011;34673;52.808;17.856;2022-10-17T13:10:44;19.02;;;13.23;;
48853;SDS011;34673;52.808;17.856;2022-10-17T13:13:19;19.08;;;13.38;;
48853;SDS011;34673;52.808;17.856;2022-10-17T13:16:06;21.05;;;13.43;;
48853;SDS011;34673;52.808;17.856;2022-10-17T13:18:33;20.88;;;14.13;;
48853;SDS011;34673;52.808;17.856;2022-10-17T13:21:02;18.77;;;13.65;;
48853;SDS011;34673;52.808;17.856;2022-10-17T13:23:39;22.52;;;12.82;;
48853;SDS011;34673;52.808;17.856;2022-10-17T13:26:15;17.58;;;11.82;;
48853;SDS011;34673;52.808;17.856;2022-10-17T13:28:44;20.58;;;12.00;;
48853;SDS011;34673;52.808;17.856;2022-10-17T13:31:35;15.38;;;11.07;;
48853;SDS011;34673;52.808;17.856;2022-10-17T13:34:05;16.65;;;11.27;;
48853;SDS011;34673;52.808;17.856;2022-10-17T13:36:42;15.93;;;10.65;;
48853;SDS011;34673;52.808;17.856;2022-10-17T13:39:15;14.20;;;9.98;;
48853;SDS011;34673;52.808;17.856;2022-10-17T13:42:04;16.52;;;10.75;;
48853;SDS011;34673;52.808;17.856;2022-10-17T13:44:33;15.95;;;11.10;;
48853;SDS011;34673;52.808;17.856;2022-10-17T13:47:18;19.58;;;11.77;;
48853;SDS011;34673;52.808;17.856;2022-10-17T13:49:47;18.70;;;11.70;;
48853;SDS011;34673;52.808;17.856;2022-10-17T13:52:21;23.35;;;12.65;;
48853;SDS011;34673;52.808;17.856;2022-10-17T13:54:51;19.52;;;12.20;;
48853;SDS011;34673;52.808;17.856;2022-10-17T13:57:23;20.58;;;12.43;;
48853;SDS011;34673;52.808;17.856;2022-10-17T13:59:58;17.52;;;11.30;;
48853;SDS011;34673;52.808;17.856;2022-10-17T14:02:39;22.70;;;12.95;;
48853;SDS011;34673;52.808;17.856;2022-10-17T14:05:11;18.85;;;12.63;;
48853;SDS011;34673;52.808;17.856;2022-10-17T14:07:58;18.45;;;12.52;;
48853;SDS011;34673;52.808;17.856;2022-10-17T14:10:40;17.40;;;12.30;;
48853;SDS011;34673;52.808;17.856;2022-10-17T14:13:20;17.57;;;12.23;;
48853;SDS011;34673;52.808;17.856;2022-10-17T14:15:56;19.58;;;12.85;;
48853;SDS011;34673;52.808;17.856;2022-10-17T14:18:28;18.13;;;11.85;;
48853;SDS011;34673;52.808;17.856;2022-10-17T14:21:03;16.38;;;12.77;;
48853;SDS011;34673;52.808;17.856;2022-10-17T14:23:52;16.30;;;12.32;;
48853;SDS011;34673;52.808;17.856;2022-10-17T14:29:28;15.80;;;11.23;;
48853;SDS011;34673;52.808;17.856;2022-10-17T14:32:18;18.63;;;11.05;;
48853;SDS011;34673;52.808;17.856;2022-10-17T14:34:50;15.05;;;11.02;;
48853;SDS011;34673;52.808;17.856;2022-10-17T14:37:42;15.32;;;11.38;;
48853;SDS011;34673;52.808;17.856;2022-10-17T14:40:16;15.48;;;10.82;;
48853;SDS011;34673;52.808;17.856;2022-10-17T14:42:45;17.73;;;11.38;;
48853;SDS011;34673;52.808;17.856;2022-10-17T14:45:16;19.65;;;11.93;;
48853;SDS011;34673;52.808;17.856;2022-10-17T14:47:53;17.88;;;11.38;;
48853;SDS011;34673;52.808;17.856;2022-10-17T14:50:26;15.68;;;11.02;;
48853;SDS011;34673;52.808;17.856;2022-10-17T14:53:03;14.75;;;10.75;;
48853;SDS011;34673;52.808;17.856;2022-10-17T14:55:33;18.05;;;10.88;;
48853;SDS011;34673;52.808;17.856;2022-10-17T14:58:14;19.70;;;10.88;;
48853;SDS011;34673;52.808;17.856;2022-10-17T15:00:48;19.85;;;10.73;;
48853;SDS011;34673;52.808;17.856;2022-10-17T15:03:15;16.98;;;10.75;;
48853;SDS011;34673;52.808;17.856;2022-10-17T15:05:51;14.88;;;10.90;;
48853;SDS011;34673;52.808;17.856;2022-10-17T15:08:20;15.30;;;10.68;;
48853;SDS011;34673;52.808;17.856;2022-10-17T15:10:49;15.40;;;11.02;;
48853;SDS011;34673;52.808;17.856;2022-10-17T15:13:16;16.20;;;10.75;;
48853;SDS011;34673;52.808;17.856;2022-10-17T15:15:55;19.00;;;11.18;;
48853;SDS011;34673;52.808;17.856;2022-10-17T15:18:22;16.58;;;11.48;;
48853;SDS011;34673;52.808;17.856;2022-10-17T15:20:49;18.15;;;11.75;;
48853;SDS011;34673;52.808;17.856;2022-10-17T15:23:30;16.90;;;11.27;;
48853;SDS011;34673;52.808;17.856;2022-10-17T15:25:57;17.48;;;11.10;;
48853;SDS011;34673;52.808;17.856;2022-10-17T15:28:25;16.90;;;11.32;;
48853;SDS011;34673;52.808;17.856;2022-10-17T15:30:52;15.50;;;11.15;;
48853;SDS011;34673;52.808;17.856;2022-10-17T15:33:20;16.67;;;11.75;;
48853;SDS011;34673;52.808;17.856;2022-10-17T15:35:47;20.83;;;11.95;;
48853;SDS011;34673;52.808;17.856;2022-10-17T15:38:15;16.52;;;11.73;;
48853;SDS011;34673;52.808;17.856;2022-10-17T15:40:45;16.17;;;11.80;;
48853;SDS011;34673;52.808;17.856;2022-10-17T15:43:14;21.98;;;12.10;;
48853;SDS011;34673;52.808;17.856;2022-10-17T15:45:45;17.65;;;11.55;;
48853;SDS011;34673;52.808;17.856;2022-10-17T15:48:18;17.80;;;12.27;;
48853;SDS011;34673;52.808;17.856;2022-10-17T15:50:52;22.10;;;13.00;;
48853;SDS011;34673;52.808;17.856;2022-10-17T15:53:19;20.75;;;12.55;;
48853;SDS011;34673;52.808;17.856;2022-10-17T15:55:46;18.02;;;12.93;;
48853;SDS011;34673;52.808;17.856;2022-10-17T15:58:17;18.95;;;12.45;;
48853;SDS011;34673;52.808;17.856;2022-10-17T16:00:45;18.50;;;12.90;;
48853;SDS011;34673;52.808;17.856;2022-10-17T16:03:13;20.05;;;12.95;;
48853;SDS011;34673;52.808;17.856;2022-10-17T16:05:40;18.23;;;13.80;;
48853;SDS011;34673;52.808;17.856;2022-10-17T16:08:08;21.42;;;13.43;;
48853;SDS011;34673;52.808;17.856;2022-10-17T16:10:36;23.25;;;13.48;;
48853;SDS011;34673;52.808;17.856;2022-10-17T16:13:05;23.60;;;14.20;;
48853;SDS011;34673;52.808;17.856;2022-10-17T16:15:32;22.88;;;13.80;;
48853;SDS011;34673;52.808;17.856;2022-10-17T16:17:59;21.17;;;13.90;;
48853;SDS011;34673;52.808;17.856;2022-10-17T16:20:32;19.30;;;13.55;;
48853;SDS011;34673;52.808;17.856;2022-10-17T16:22:59;22.05;;;14.30;;
48853;SDS011;34673;52.808;17.856;2022-10-17T16:25:29;20.97;;;13.40;;
48853;SDS011;34673;52.808;17.856;2022-10-17T16:27:58;19.83;;;13.70;;
48853;SDS011;34673;52.808;17.856;2022-10-17T16:30:27;20.65;;;13.90;;
48853;SDS011;34673;52.808;17.856;2022-10-17T16:32:56;19.20;;;12.93;;
48853;SDS011;34673;52.808;17.856;2022-10-17T16:35:25;20.27;;;13.05;;
48853;SDS011;34673;52.808;17.856;2022-10-17T16:38:00;20.23;;;13.52;;